sensor_id;sensor_type;location;lat;lon;timestamp;temperature;humidity
19496;DHT22;9888;48.606;9.630;2023-07-31T00:00:14;9.70;99.90
19496;DHT22;9888;48.606;9.630;2023-07-31T00:02:43;9.70;99.90
19496;DHT22;9888;48.606;9.630;2023-07-31T00:08:01;9.70;99.90
19496;DHT22;9888;48.606;9.630;2023-07-31T00:10:39;9.70;99.90
19496;DHT22;9888;48.606;9.630;2023-07-31T00:13:08;9.70;99.90
19496;DHT22;9888;48.606;9.630;2023-07-31T00:16:07;9.70;99.90
19496;DHT22;9888;48.606;9.630;2023-07-31T00:18:35;9.60;99.90
19496;DHT22;9888;48.606;9.630;2023-07-31T00:21:05;9.50;99.90
19496;DHT22;9888;48.606;9.630;2023-07-31T00:23:39;9.50;99.90
19496;DHT22;9888;48.606;9.630;2023-07-31T00:26:06;9.50;99.90
19496;DHT22;9888;48.606;9.630;2023-07-31T00:28:34;9.50;99.90
19496;DHT22;9888;48.606;9.630;2023-07-31T00:31:22;9.50;99.90
19496;DHT22;9888;48.606;9.630;2023-07-31T00:33:51;9.50;99.90
19496;DHT22;9888;48.606;9.630;2023-07-31T00:36:19;9.50;99.90
19496;DHT22;9888;48.606;9.630;2023-07-31T00:38:46;9.50;99.90
19496;DHT22;9888;48.606;9.630;2023-07-31T00:41:14;9.40;99.90
19496;DHT22;9888;48.606;9.630;2023-07-31T00:43:41;9.40;99.90
19496;DHT22;9888;48.606;9.630;2023-07-31T00:46:11;9.40;99.90
19496;DHT22;9888;48.606;9.630;2023-07-31T00:48:40;9.30;99.90
19496;DHT22;9888;48.606;9.630;2023-07-31T00:51:08;9.30;99.90
19496;DHT22;9888;48.606;9.630;2023-07-31T00:53:37;9.30;99.90
19496;DHT22;9888;48.606;9.630;2023-07-31T00:56:04;9.20;99.90
19496;DHT22;9888;48.606;9.630;2023-07-31T00:58:34;9.20;99.90
19496;DHT22;9888;48.606;9.630;2023-07-31T01:01:02;9.20;99.90
19496;DHT22;9888;48.606;9.630;2023-07-31T01:03:31;9.10;99.90
19496;DHT22;9888;48.606;9.630;2023-07-31T01:06:13;9.10;99.90
19496;DHT22;9888;48.606;9.630;2023-07-31T01:12:09;9.00;99.90
19496;DHT22;9888;48.606;9.630;2023-07-31T01:14:40;9.00;99.90
19496;DHT22;9888;48.606;9.630;2023-07-31T01:20:30;8.90;99.90
19496;DHT22;9888;48.606;9.630;2023-07-31T01:23:33;8.90;99.90
19496;DHT22;9888;48.606;9.630;2023-07-31T01:26:12;8.90;99.90
19496;DHT22;9888;48.606;9.630;2023-07-31T01:32:10;8.90;99.90
19496;DHT22;9888;48.606;9.630;2023-07-31T01:34:40;8.80;99.90
19496;DHT22;9888;48.606;9.630;2023-07-31T01:37:10;8.80;99.90
19496;DHT22;9888;48.606;9.630;2023-07-31T01:39:38;8.80;99.90
19496;DHT22;9888;48.606;9.630;2023-07-31T01:42:05;8.80;99.90
19496;DHT22;9888;48.606;9.630;2023-07-31T01:44:41;8.90;99.90
19496;DHT22;9888;48.606;9.630;2023-07-31T01:47:26;8.90;99.90
19496;DHT22;9888;48.606;9.630;2023-07-31T01:49:54;8.90;99.90
19496;DHT22;9888;48.606;9.630;2023-07-31T01:52:25;8.80;99.90
19496;DHT22;9888;48.606;9.630;2023-07-31T01:54:54;8.80;99.90
19496;DHT22;9888;48.606;9.630;2023-07-31T01:57:21;8.80;99.90
19496;DHT22;9888;48.606;9.630;2023-07-31T02:00:06;8.70;99.90
19496;DHT22;9888;48.606;9.630;2023-07-31T02:02:37;8.70;99.90
19496;DHT22;9888;48.606;9.630;2023-07-31T02:05:08;8.70;99.90
19496;DHT22;9888;48.606;9.630;2023-07-31T02:07:36;8.70;99.90
19496;DHT22;9888;48.606;9.630;2023-07-31T02:10:04;8.70;99.90
19496;DHT22;9888;48.606;9.630;2023-07-31T02:12:32;8.70;99.90
19496;DHT22;9888;48.606;9.630;2023-07-31T02:18:35;8.70;99.90
19496;DHT22;9888;48.606;9.630;2023-07-31T02:21:02;8.70;99.90
19496;DHT22;9888;48.606;9.630;2023-07-31T02:23:30;8.70;99.90
19496;DHT22;9888;48.606;9.630;2023-07-31T02:25:58;8.70;99.90
19496;DHT22;9888;48.606;9.630;2023-07-31T02:28:28;8.60;99.90
19496;DHT22;9888;48.606;9.630;2023-07-31T02:30:55;8.60;99.90
19496;DHT22;9888;48.606;9.630;2023-07-31T02:33:23;8.60;99.90
19496;DHT22;9888;48.606;9.630;2023-07-31T02:35:51;8.70;99.90
19496;DHT22;9888;48.606;9.630;2023-07-31T02:41:42;8.60;99.90
19496;DHT22;9888;48.606;9.630;2023-07-31T02:44:11;8.60;99.90
19496;DHT22;9888;48.606;9.630;2023-07-31T02:46:40;8.60;99.90
19496;DHT22;9888;48.606;9.630;2023-07-31T02:49:08;8.60;99.90
19496;DHT22;9888;48.606;9.630;2023-07-31T02:51:37;8.70;99.90
19496;DHT22;9888;48.606;9.630;2023-07-31T03:00:25;8.60;99.90
19496;DHT22;9888;48.606;9.630;2023-07-31T03:02:52;8.60;99.90
19496;DHT22;9888;48.606;9.630;2023-07-31T03:05:21;8.60;99.90
19496;DHT22;9888;48.606;9.630;2023-07-31T03:07:49;8.60;99.90
19496;DHT22;9888;48.606;9.630;2023-07-31T03:10:16;8.50;99.90
19496;DHT22;9888;48.606;9.630;2023-07-31T03:12:47;8.50;99.90
19496;DHT22;9888;48.606;9.630;2023-07-31T03:15:16;8.50;99.90
19496;DHT22;9888;48.606;9.630;2023-07-31T03:17:43;8.60;99.90
19496;DHT22;9888;48.606;9.630;2023-07-31T03:20:10;8.60;99.90
19496;DHT22;9888;48.606;9.630;2023-07-31T03:22:39;8.60;99.90
19496;DHT22;9888;48.606;9.630;2023-07-31T03:25:09;8.60;99.90
19496;DHT22;9888;48.606;9.630;2023-07-31T03:27:37;8.50;99.90
19496;DHT22;9888;48.606;9.630;2023-07-31T03:30:05;8.50;99.90
19496;DHT22;9888;48.606;9.630;2023-07-31T03:35:53;8.60;99.90
19496;DHT22;9888;48.606;9.630;2023-07-31T03:38:21;8.50;99.90
19496;DHT22;9888;48.606;9.630;2023-07-31T03:41:01;8.50;99.90
19496;DHT22;9888;48.606;9.630;2023-07-31T03:43:29;8.50;99.90
19496;DHT22;9888;48.606;9.630;2023-07-31T03:45:56;8.50;99.90
19496;DHT22;9888;48.606;9.630;2023-07-31T03:48:24;8.50;99.90
19496;DHT22;9888;48.606;9.630;2023-07-31T03:50:56;8.50;99.90
19496;DHT22;9888;48.606;9.630;2023-07-31T03:53:24;8.50;99.90
19496;DHT22;9888;48.606;9.630;2023-07-31T03:55:53;8.50;99.90
19496;DHT22;9888;48.606;9.630;2023-07-31T03:58:21;8.60;99.90
19496;DHT22;9888;48.606;9.630;2023-07-31T04:00:49;8.60;99.90
19496;DHT22;9888;48.606;9.630;2023-07-31T04:03:17;8.70;99.90
19496;DHT22;9888;48.606;9.630;2023-07-31T04:05:44;8.70;99.90
19496;DHT22;9888;48.606;9.630;2023-07-31T04:08:17;8.70;99.90
19496;DHT22;9888;48.606;9.630;2023-07-31T04:10:47;8.70;99.90
19496;DHT22;9888;48.606;9.630;2023-07-31T04:13:16;8.80;99.90
19496;DHT22;9888;48.606;9.630;2023-07-31T04:15:49;8.80;99.90
19496;DHT22;9888;48.606;9.630;2023-07-31T04:18:20;8.90;99.90
19496;DHT22;9888;48.606;9.630;2023-07-31T04:20:47;9.00;99.90
19496;DHT22;9888;48.606;9.630;2023-07-31T04:23:15;9.00;99.90
19496;DHT22;9888;48.606;9.630;2023-07-31T04:25:46;9.10;99.90
19496;DHT22;9888;48.606;9.630;2023-07-31T04:28:17;9.20;99.90
19496;DHT22;9888;48.606;9.630;2023-07-31T04:30:45;9.20;99.90
19496;DHT22;9888;48.606;9.630;2023-07-31T04:33:12;9.30;99.90
19496;DHT22;9888;48.606;9.630;2023-07-31T04:35:39;9.50;99.90
19496;DHT22;9888;48.606;9.630;2023-07-31T04:38:08;9.60;99.90
19496;DHT22;9888;48.606;9.630;2023-07-31T04:40:35;9.70;99.90
19496;DHT22;9888;48.606;9.630;2023-07-31T04:43:02;9.80;99.90
19496;DHT22;9888;48.606;9.630;2023-07-31T04:45:30;9.90;99.90
19496;DHT22;9888;48.606;9.630;2023-07-31T04:47:59;10.10;99.90
19496;DHT22;9888;48.606;9.630;2023-07-31T04:50:28;10.30;99.90
19496;DHT22;9888;48.606;9.630;2023-07-31T04:52:57;10.40;99.90
19496;DHT22;9888;48.606;9.630;2023-07-31T04:55:24;10.60;99.90
19496;DHT22;9888;48.606;9.630;2023-07-31T04:57:52;10.70;99.90
19496;DHT22;9888;48.606;9.630;2023-07-31T05:03:28;10.90;99.90
19496;DHT22;9888;48.606;9.630;2023-07-31T05:05:57;11.00;99.90
19496;DHT22;9888;48.606;9.630;2023-07-31T22:14:08;15.80;99.90
19496;DHT22;9888;48.606;9.630;2023-07-31T22:16:38;15.70;99.90
19496;DHT22;9888;48.606;9.630;2023-07-31T22:19:10;15.70;99.90
19496;DHT22;9888;48.606;9.630;2023-07-31T22:21:43;15.70;99.90
19496;DHT22;9888;48.606;9.630;2023-07-31T22:24:10;15.80;99.90
19496;DHT22;9888;48.606;9.630;2023-07-31T22:27:04;15.70;99.90
19496;DHT22;9888;48.606;9.630;2023-07-31T22:29:32;15.70;99.90
19496;DHT22;9888;48.606;9.630;2023-07-31T22:32:00;15.80;99.90
19496;DHT22;9888;48.606;9.630;2023-07-31T22:34:35;15.80;99.90
19496;DHT22;9888;48.606;9.630;2023-07-31T22:37:05;15.80;99.90
19496;DHT22;9888;48.606;9.630;2023-07-31T22:39:33;15.70;99.90
19496;DHT22;9888;48.606;9.630;2023-07-31T22:42:01;15.70;99.90
19496;DHT22;9888;48.606;9.630;2023-07-31T22:44:29;15.70;99.90
19496;DHT22;9888;48.606;9.630;2023-07-31T22:47:08;15.70;99.90
19496;DHT22;9888;48.606;9.630;2023-07-31T22:49:35;15.70;99.90
19496;DHT22;9888;48.606;9.630;2023-07-31T22:52:04;15.70;99.90
19496;DHT22;9888;48.606;9.630;2023-07-31T22:54:36;15.70;99.90
19496;DHT22;9888;48.606;9.630;2023-07-31T22:57:06;15.70;99.90
19496;DHT22;9888;48.606;9.630;2023-07-31T23:00:05;15.70;99.90
19496;DHT22;9888;48.606;9.630;2023-07-31T23:02:39;15.70;99.90
19496;DHT22;9888;48.606;9.630;2023-07-31T23:05:11;15.70;99.90
19496;DHT22;9888;48.606;9.630;2023-07-31T23:07:38;15.70;99.90
19496;DHT22;9888;48.606;9.630;2023-07-31T23:10:05;15.70;99.90
19496;DHT22;9888;48.606;9.630;2023-07-31T23:12:33;15.60;99.90
19496;DHT22;9888;48.606;9.630;2023-07-31T23:18:26;15.70;99.90
19496;DHT22;9888;48.606;9.630;2023-07-31T23:20:54;15.70;99.90
19496;DHT22;9888;48.606;9.630;2023-07-31T23:26:48;15.70;99.90
19496;DHT22;9888;48.606;9.630;2023-07-31T23:29:18;15.70;99.90
19496;DHT22;9888;48.606;9.630;2023-07-31T23:31:46;15.60;99.90
19496;DHT22;9888;48.606;9.630;2023-07-31T23:34:14;15.60;99.90
19496;DHT22;9888;48.606;9.630;2023-07-31T23:36:45;15.60;99.90
19496;DHT22;9888;48.606;9.630;2023-07-31T23:39:21;15.60;99.90
19496;DHT22;9888;48.606;9.630;2023-07-31T23:45:17;15.70;99.90
19496;DHT22;9888;48.606;9.630;2023-07-31T23:47:48;15.70;99.90
19496;DHT22;9888;48.606;9.630;2023-07-31T23:53:38;15.70;99.90
19496;DHT22;9888;48.606;9.630;2023-07-31T23:56:07;15.60;99.90
19496;DHT22;9888;48.606;9.630;2023-07-31T23:58:36;15.60;99.90
